ADDS TAF Board (Experimental) INFO Settings
IDs: Format: Expanded Condensed

KLAX - Los Angeles Intl, CA, US

Issued at 0529 UTC 02 Jul 2015
Updated at: 0808 UTC 02 Jul 2015
Time0753Z 02/09Z 02/10Z 02/11Z 02/12Z 02/13Z 02/14Z 02/15Z 02/16Z 02/17Z 02/18Z 02/19Z 02/20Z 02/21Z
Type OBS PRVL PRVL PRVL PRVL PRVL PRVL PRVL PRVL PRVL PRVL PRVL PRVL PRVL
VIS 10 >6 >6 >6 >6 >6 >6 >6 >6 >6 >6 >6 >6 >6
CIG 140 150 150 150 150 150 150 150 150 150 -- -- -- --
Cover BKN BKN BKN BKN BKN BKN BKN BKN BKN BKN SCT SCT SCT SCT
FltCat VFR VFR VFR VFR VFR VFR VFR VFR VFR VFR VFR VFR VFR VFR
WX -- -- -- -- -- -- -- -- -- -- -- -- -- --
WDir VRB VRB VRB VRB VRB VRB VRB VRB VRB VRB 270 270 270 270
WSpd 0 3 3 3 3 3 3 3 3 3 12 12 12 12
WGst -- -- -- -- -- -- -- -- -- -- -- -- -- --
R06/24
XWnd VRB VRB VRB VRB VRB VRB VRB VRB VRB VRB 1 1 1 1
HWnd VRB VRB VRB VRB VRB VRB VRB VRB VRB VRB -12 -12 -12 -12
R07/25
XWnd VRB VRB VRB VRB VRB VRB VRB VRB VRB VRB 1 1 1 1
HWnd VRB VRB VRB VRB VRB VRB VRB VRB VRB VRB -12 -12 -12 -12

NOTE: TEMPO conditions in [brackets]. Keep in mind TEMPO conditions might be better (lower impact) than prevailing conditions.

Raw TAF
KLAX 020529Z 0206/0312 26008KT P6SM VCSH SCT080 BKN150
  FM020900 VRB03KT P6SM SCT007 BKN150
  FM021800 27012KT P6SM SCT150
  FM030500 VRB03KT P6SM SCT007 SCT150
  FM030900 VRB03KT P6SM BKN007


Raw METAR
KLAX 020753Z 00000KT 10SM FEW007 SCT080 BKN140 19/17 A2996 RMK AO2 SLP142 T01940167 402440189 $
KLAX 020653Z 32005KT 10SM FEW007 BKN140 19/17 A2995 RMK AO2 SLP140 T01940167 $
KLAX 020553Z 24004KT 10SM FEW007 SCT020 BKN120 19/17 A2996 RMK AO2 SLP144 T01890172 10222 20189 53009 $

METAR Board
Radar Display
Forecast Discussion

TAF Board Legend

Potential Impact
Threat None Slight Moderate High
Visibility (sm) ≥5.1 5.1>X≥3 3>X≥1 <1
Ceiling (100 ft) ≥30.1 30.1>X≥10 10>X≥5 <5
Wind Speed (kt) <10 10≤X<20 20≤X<30 ≥30
Wind Gust (kt) <15 15≤X<25 25≤X<35 ≥35
Weather No Wx Reported VCTS,-TS,-FZRA,SN TS,FZRA +TS,+FZRA,+SN